Sp Dublin — 9HA2661 — position and weather

sailwx.info

Track history (hours):
 
Tides and Currents Weather Stations Pressure Air Temp Water Temp Dewpoint Dewpoint Depression Visibility Wind Speed Wind Dir Waves Ship Positions

Sp Dublin

Last reported at 2014-Sep-20 14:31 UTC. Time now 2014-Nov-01 13:24 UTC.
Position N 36°58' W 001°27'.
Warning: this ship's position is 41 days out of date.

Length 83 m; draft 4 m.

Type: Tanker. MMSI: 215164000.

Date/timePositionNaut miles runAvg speedWind from/ knotsBaromVisibWave heightAir tempDewpointWater temp
2014-Sep-20 14:31N 36°58' W 001°27'18 7.6
2014-Sep-20 12:08N 37°09' W 001°09'4 7.6
2014-Sep-20 11:33N 37°12' W 001°05'9 7.8
2014-Sep-20 10:23N 37°17' W 000°55'7 7.8
2014-Sep-20 09:33N 37°21' W 000°49'8 7.8
2014-Sep-20 08:33N 37°27' W 000°42'8 8.0
2014-Sep-20 07:32N 37°33' W 000°36'8 7.8
2014-Sep-20 06:33N 37°39' W 000°30'8 8.1
2014-Sep-20 05:33N 37°45' W 000°24'10 7.8
2014-Sep-20 04:18N 37°54' W 000°17'6 7.7
2014-Sep-20 03:33N 37°59' W 000°13'9 8.1
2014-Sep-20 02:29N 38°06' W 000°08'9 7.8
2014-Sep-20 01:22N 38°13' W 000°01'15 7.9
2014-Sep-19 23:32N 38°25' E 000°09'63 6.4
2014-Sep-19 13:33N 39°25' W 000°17'2 2.3
2014-Sep-19 12:33N 39°27' W 000°20'0 0.0
2014-Sep-19 11:33N 39°27' W 000°20'0 0.0
2014-Sep-19 10:33N 39°27' W 000°20'0 0.0
2014-Sep-19 09:33N 39°27' W 000°20'0 0.0
2014-Sep-19 08:33N 39°27' W 000°20'0 0.0
2014-Sep-19 07:33N 39°27' W 000°20'0 0.0
2014-Sep-19 06:33N 39°27' W 000°20'0 0.0
2014-Sep-19 05:33N 39°27' W 000°20'0 0.0
2014-Sep-19 04:33N 39°27' W 000°20'0 0.0
2014-Sep-19 03:33N 39°27' W 000°20'0 0.0
2014-Sep-19 02:33N 39°27' W 000°20'0 0.0
2014-Sep-19 01:33N 39°27' W 000°20'0 0.0
2014-Sep-19 00:33N 39°27' W 000°20'0 0.0
2014-Sep-18 23:33N 39°27' W 000°20'0 0.0
2014-Sep-18 22:33N 39°27' W 000°20'0 0.0
2014-Sep-18 21:33N 39°27' W 000°20'0 0.0
2014-Sep-18 20:33N 39°27' W 000°20'0 0.0
2014-Sep-18 19:33N 39°27' W 000°20'0 0.0
2014-Sep-18 18:33N 39°27' W 000°20'0 0.0
2014-Sep-18 17:33N 39°27' W 000°20'0 0.0
2014-Sep-18 16:33N 39°27' W 000°20'0 0.0
2014-Sep-18 15:33N 39°27' W 000°20'0 0.0
2014-Sep-18 14:33N 39°27' W 000°20'0 0.0
2014-Sep-18 13:33N 39°27' W 000°20'0 0.0
2014-Sep-18 12:33N 39°27' W 000°20'0 0.0
2014-Sep-18 11:33N 39°27' W 000°20'0 0.0
2014-Sep-18 10:33N 39°27' W 000°20'0 0.0
2014-Sep-18 09:33N 39°27' W 000°20'0 0.0
2014-Sep-18 08:33N 39°27' W 000°20'0 0.0
2014-Sep-18 07:33N 39°27' W 000°20'0 0.0
2014-Sep-18 06:33N 39°27' W 000°20'0 0.0
2014-Sep-18 05:33N 39°27' W 000°20'0 0.0
2014-Sep-18 04:33N 39°27' W 000°20'0 0.0
2014-Sep-18 03:33N 39°27' W 000°20'0 0.0
2014-Sep-18 02:33N 39°27' W 000°20'0 0.0
2014-Sep-18 01:33N 39°27' W 000°20'0 0.0
2014-Sep-18 00:33N 39°27' W 000°20'0 0.0
2014-Sep-17 23:33N 39°27' W 000°20'0 0.0
2014-Sep-17 22:33N 39°27' W 000°20'0 0.0
2014-Sep-17 21:33N 39°27' W 000°20'0 0.0
2014-Sep-17 20:33N 39°27' W 000°20'0 0.0
2014-Sep-17 19:33N 39°27' W 000°20'0 0.0
2014-Sep-17 18:33N 39°27' W 000°20'0 0.0
2014-Sep-17 17:33N 39°27' W 000°20'0 0.0
2014-Sep-17 16:33N 39°27' W 000°20'0 0.0
2014-Sep-17 15:33N 39°27' W 000°20'0 0.0
2014-Sep-17 14:33N 39°27' W 000°20'0 0.0
2014-Sep-17 13:33N 39°27' W 000°20'0 0.0
2014-Sep-17 12:33N 39°27' W 000°20'0 0.0
2014-Sep-17 11:33N 39°27' W 000°20'0 0.0
2014-Sep-17 10:33N 39°27' W 000°20'0 0.0
2014-Sep-17 09:33N 39°27' W 000°20'0 0.0
2014-Sep-17 08:33N 39°27' W 000°20'0 0.0
2014-Sep-17 07:33N 39°27' W 000°20'0 0.0
2014-Sep-17 06:33N 39°27' W 000°20'0 0.0
2014-Sep-17 05:33N 39°27' W 000°20'0 0.0
2014-Sep-17 04:33N 39°27' W 000°20'0 0.0
2014-Sep-17 03:33N 39°27' W 000°20'0 0.0
2014-Sep-17 02:33N 39°27' W 000°20'0 0.0
2014-Sep-17 01:33N 39°27' W 000°20'0 0.0
2014-Sep-17 00:33N 39°27' W 000°20'0 0.0
2014-Sep-16 23:33N 39°27' W 000°20'0 0.0
2014-Sep-16 22:33N 39°27' W 000°20'0 0.0
2014-Sep-16 21:33N 39°27' W 000°20'0 0.0
2014-Sep-16 20:33N 39°27' W 000°20'0 0.0
2014-Sep-16 19:33N 39°27' W 000°20'0 0.0
2014-Sep-16 18:33N 39°27' W 000°20'0 0.0
2014-Sep-16 17:33N 39°27' W 000°20'0 0.0
2014-Sep-16 16:33N 39°27' W 000°20'0 0.0
2014-Sep-16 15:33N 39°27' W 000°20'0 0.0
2014-Sep-16 14:33N 39°27' W 000°20'0 0.0
2014-Sep-16 13:33N 39°27' W 000°20'0 0.0
2014-Sep-16 12:33N 39°27' W 000°20'0 0.0
2014-Sep-16 11:33N 39°27' W 000°20'0 0.0
2014-Sep-16 10:33N 39°27' W 000°20'0 0.0
2014-Sep-16 09:33N 39°27' W 000°20'0 0.0
2014-Sep-16 08:33N 39°27' W 000°20'0 0.0
2014-Sep-16 07:33N 39°27' W 000°20'0 0.0
2014-Sep-16 06:33N 39°27' W 000°20'0 0.0
2014-Sep-16 05:33N 39°27' W 000°20'0 0.0
2014-Sep-16 04:33N 39°27' W 000°20'0 0.0
2014-Sep-16 03:33N 39°27' W 000°20'0 0.0
2014-Sep-16 02:33N 39°27' W 000°20'0 0.0
2014-Sep-16 01:33N 39°27' W 000°20'0 0.0
2014-Sep-16 00:33N 39°27' W 000°20'0 0.0
2014-Sep-15 23:33N 39°27' W 000°20'0 0.0
2014-Sep-15 22:33N 39°27' W 000°20'0 0.0
2014-Sep-15 21:33N 39°27' W 000°20'0 0.0
2014-Sep-15 20:33N 39°27' W 000°20'0 0.0
2014-Sep-15 19:33N 39°27' W 000°20'0 0.0
2014-Sep-15 18:33N 39°27' W 000°20'0 0.0
2014-Sep-15 17:33N 39°27' W 000°20'0 0.0
2014-Sep-15 16:33N 39°27' W 000°20'0 0.0
2014-Sep-15 15:33N 39°27' W 000°20'0 0.0
2014-Sep-15 14:33N 39°27' W 000°20'0 0.0
2014-Sep-15 13:33N 39°27' W 000°20'0 0.0
2014-Sep-15 12:33N 39°27' W 000°20'0 0.0
2014-Sep-15 11:33N 39°27' W 000°20'0 0.0
2014-Sep-15 10:33N 39°27' W 000°20'0 0.0
2014-Sep-15 09:33N 39°27' W 000°20'0 0.0
2014-Sep-15 08:33N 39°27' W 000°20'0 0.0
2014-Sep-15 07:33N 39°27' W 000°20'0 0.0
2014-Sep-15 06:33N 39°27' W 000°20'0 0.0
2014-Sep-15 05:33N 39°27' W 000°20'0 0.0
2014-Sep-15 04:33N 39°27' W 000°20'0 0.0
2014-Sep-15 03:33N 39°27' W 000°20'0 0.0
2014-Sep-15 02:33N 39°27' W 000°20'0 0.0
2014-Sep-15 01:33N 39°27' W 000°20'0 0.0
2014-Sep-15 00:33N 39°27' W 000°20'0 0.0
2014-Sep-14 23:33N 39°27' W 000°20'0 0.0
2014-Sep-14 22:33N 39°27' W 000°20'0 0.0
2014-Sep-14 21:33N 39°27' W 000°20'0 0.0
2014-Sep-14 20:33N 39°27' W 000°20'0 0.0
2014-Sep-14 19:34N 39°27' W 000°20'0 0.0
2014-Sep-14 18:33N 39°27' W 000°20'0 0.0
2014-Sep-14 17:33N 39°27' W 000°20'0 0.0
2014-Sep-14 16:34N 39°27' W 000°20'0 0.0
2014-Sep-14 15:34N 39°27' W 000°20'0 0.0
2014-Sep-14 14:33N 39°27' W 000°20'0 0.0
2014-Sep-14 13:33N 39°27' W 000°20'0 0.0
2014-Sep-14 12:33N 39°27' W 000°20'0 0.0
2014-Sep-14 11:33N 39°27' W 000°20'0 0.0
2014-Sep-14 10:33N 39°27' W 000°20'0 0.0
2014-Sep-14 09:33N 39°27' W 000°20'0 0.0
2014-Sep-14 08:33N 39°27' W 000°20'0 0.0
2014-Sep-14 07:33N 39°27' W 000°20'0 0.0
2014-Sep-14 06:33N 39°27' W 000°20'0 0.0
2014-Sep-14 05:33N 39°27' W 000°20'0 0.0
2014-Sep-14 04:33N 39°27' W 000°20'0 0.0
2014-Sep-14 03:33N 39°27' W 000°20'0 0.0
2014-Sep-14 02:33N 39°27' W 000°20'0 0.0
2014-Sep-14 01:33N 39°27' W 000°20'0 0.0
2014-Sep-13 21:33N 39°27' W 000°20'0 0.0
2014-Sep-13 20:34N 39°27' W 000°20'0 0.0
2014-Sep-13 19:33N 39°27' W 000°20'0 0.0
2014-Sep-13 18:34N 39°27' W 000°20'0 0.0
2014-Sep-13 17:33N 39°27' W 000°20'0 0.0
2014-Sep-13 16:34N 39°27' W 000°20'0 0.0
2014-Sep-13 15:34N 39°27' W 000°20'0 0.0
2014-Sep-13 14:33N 39°27' W 000°20'0 0.0
2014-Sep-13 13:33N 39°27' W 000°20'0 0.0
2014-Sep-13 12:33N 39°27' W 000°20'0 0.0
2014-Sep-13 11:33N 39°27' W 000°20'0 0.0
2014-Sep-13 10:34N 39°27' W 000°20'0 0.3
2014-Sep-13 09:33N 39°27' W 000°20'0 0.3
2014-Sep-13 08:33N 39°27' W 000°20'0 0.0
2014-Sep-13 07:33N 39°27' W 000°20'0 0.0
2014-Sep-13 06:33N 39°27' W 000°20'0 0.0
2014-Sep-13 05:33N 39°27' W 000°20'0 0.0
2014-Sep-13 04:33N 39°27' W 000°20'0 0.0
2014-Sep-13 03:34N 39°27' W 000°20'0 0.0
2014-Sep-13 02:33N 39°27' W 000°20'0 0.0
2014-Sep-13 01:34N 39°27' W 000°20'0 0.0
2014-Sep-13 00:33N 39°27' W 000°20'0 0.0
2014-Sep-12 23:33N 39°27' W 000°20'0 0.0
2014-Sep-12 22:33N 39°27' W 000°20'0 0.1
2014-Sep-12 21:33N 39°27' W 000°20'0 0.1
2014-Sep-12 20:34N 39°27' W 000°20'0 0.0
2014-Sep-12 19:33N 39°27' W 000°20'0 0.0
2014-Sep-12 18:34N 39°27' W 000°20'0 0.0
2014-Sep-12 17:33N 39°27' W 000°20'0 0.0
2014-Sep-12 16:33N 39°27' W 000°20'0 0.0
2014-Sep-12 15:33N 39°27' W 000°20'0 0.0
2014-Sep-12 14:33N 39°27' W 000°20'0 0.0
2014-Sep-12 13:33N 39°27' W 000°20'0 0.0
2014-Sep-12 12:33N 39°27' W 000°20'0 0.0
2014-Sep-12 11:33N 39°27' W 000°20'0 0.0
2014-Sep-12 10:33N 39°27' W 000°20'0 0.3
2014-Sep-12 09:33N 39°27' W 000°20'0 0.2
2014-Sep-12 08:33N 39°27' W 000°20'0 0.0
2014-Sep-12 07:33N 39°27' W 000°20'0 0.0
2014-Sep-12 06:34N 39°27' W 000°20'0 0.0
2014-Sep-12 05:33N 39°27' W 000°20'0 0.0
2014-Sep-12 04:33N 39°27' W 000°20'0 0.0
2014-Sep-12 03:33N 39°27' W 000°20'0 0.0
2014-Sep-12 02:33N 39°27' W 000°20'0 0.0
2014-Sep-12 01:33N 39°27' W 000°20'0 0.0
2014-Sep-12 00:33N 39°27' W 000°20'0 0.0
2014-Sep-11 23:33N 39°27' W 000°20'0 0.0
2014-Sep-11 22:33N 39°27' W 000°20'1 0.9
2014-Sep-11 21:33N 39°26' W 000°19'0 0.2
2014-Sep-11 20:34N 39°26' W 000°20'0 0.0
2014-Sep-11 19:34N 39°26' W 000°20'0 0.0
2014-Sep-11 18:33N 39°26' W 000°20'1 0.5
2014-Sep-11 16:11N 39°27' W 000°19'0 0.0
2014-Sep-11 15:33N 39°27' W 000°19'1 1.2
2014-Sep-11 14:33N 39°26' W 000°20'0 0.0
2014-Sep-11 13:33N 39°26' W 000°20'0 0.0
2014-Sep-11 12:33N 39°26' W 000°20'0 0.0
2014-Sep-11 11:32N 39°26' W 000°20'0 0.0
2014-Sep-11 10:34N 39°26' W 000°20'0 0.1
2014-Sep-11 09:33N 39°26' W 000°20'0 0.1
2014-Sep-11 08:14N 39°26' W 000°20'0 0.0
2014-Sep-11 07:33N 39°26' W 000°20'0 0.0
2014-Sep-11 06:34N 39°26' W 000°20'0 0.0
2014-Sep-11 05:33N 39°26' W 000°20'0 0.0
2014-Sep-11 04:33N 39°26' W 000°20'0 0.0
2014-Sep-11 03:33N 39°26' W 000°20'0 0.5
2014-Sep-11 02:33N 39°26' W 000°19'1 0.8
2014-Sep-11 01:33N 39°27' W 000°20'0 0.0
2014-Sep-11 00:33N 39°27' W 000°20'0 0.0
2014-Sep-10 23:33N 39°27' W 000°20'0 0.0
2014-Sep-10 22:34N 39°27' W 000°20'0 0.0
2014-Sep-10 21:33N 39°27' W 000°20'0 0.0
2014-Sep-10 20:33N 39°27' W 000°20'0 0.0
2014-Sep-10 19:33N 39°27' W 000°20'0 0.0
2014-Sep-10 18:33N 39°27' W 000°20'0 0.4
2014-Sep-10 17:33N 39°27' W 000°19'0 0.5
2014-Sep-10 16:34N 39°27' W 000°19'0 0.1
2014-Sep-10 14:33N 39°27' W 000°19'  
Track history (hours):
 
Tides and Currents Weather Stations Pressure Air Temp Water Temp Dewpoint Dewpoint Depression Visibility Wind Speed Wind Dir Waves Ship Positions

Sp Dublin

Last reported at 2014-Sep-20 14:31 UTC. Time now 2014-Nov-01 13:24 UTC.
Position N 36°58' W 001°27'.
Warning: this ship's position is 41 days out of date.

Length 83 m; draft 4 m.

Type: Tanker. MMSI: 215164000.

Date/timePositionNaut miles runAvg speedWind from/ knotsBaromVisibWave heightAir tempDewpointWater temp
2014-Sep-20 14:31N 36°58' W 001°27'18 7.6
2014-Sep-20 12:08N 37°09' W 001°09'4 7.6
2014-Sep-20 11:33N 37°12' W 001°05'9 7.8
2014-Sep-20 10:23N 37°17' W 000°55'7 7.8
2014-Sep-20 09:33N 37°21' W 000°49'8 7.8
2014-Sep-20 08:33N 37°27' W 000°42'8 8.0
2014-Sep-20 07:32N 37°33' W 000°36'8 7.8
2014-Sep-20 06:33N 37°39' W 000°30'8 8.1
2014-Sep-20 05:33N 37°45' W 000°24'10 7.8
2014-Sep-20 04:18N 37°54' W 000°17'6 7.7
2014-Sep-20 03:33N 37°59' W 000°13'9 8.1
2014-Sep-20 02:29N 38°06' W 000°08'9 7.8
2014-Sep-20 01:22N 38°13' W 000°01'15 7.9
2014-Sep-19 23:32N 38°25' E 000°09'63 6.4
2014-Sep-19 13:33N 39°25' W 000°17'2 2.3
2014-Sep-19 12:33N 39°27' W 000°20'0 0.0
2014-Sep-19 11:33N 39°27' W 000°20'0 0.0
2014-Sep-19 10:33N 39°27' W 000°20'0 0.0
2014-Sep-19 09:33N 39°27' W 000°20'0 0.0
2014-Sep-19 08:33N 39°27' W 000°20'0 0.0
2014-Sep-19 07:33N 39°27' W 000°20'0 0.0
2014-Sep-19 06:33N 39°27' W 000°20'0 0.0
2014-Sep-19 05:33N 39°27' W 000°20'0 0.0
2014-Sep-19 04:33N 39°27' W 000°20'0 0.0
2014-Sep-19 03:33N 39°27' W 000°20'0 0.0
2014-Sep-19 02:33N 39°27' W 000°20'0 0.0
2014-Sep-19 01:33N 39°27' W 000°20'0 0.0
2014-Sep-19 00:33N 39°27' W 000°20'0 0.0
2014-Sep-18 23:33N 39°27' W 000°20'0 0.0
2014-Sep-18 22:33N 39°27' W 000°20'0 0.0
2014-Sep-18 21:33N 39°27' W 000°20'0 0.0
2014-Sep-18 20:33N 39°27' W 000°20'0 0.0
2014-Sep-18 19:33N 39°27' W 000°20'0 0.0
2014-Sep-18 18:33N 39°27' W 000°20'0 0.0
2014-Sep-18 17:33N 39°27' W 000°20'0 0.0
2014-Sep-18 16:33N 39°27' W 000°20'0 0.0
2014-Sep-18 15:33N 39°27' W 000°20'0 0.0
2014-Sep-18 14:33N 39°27' W 000°20'0 0.0
2014-Sep-18 13:33N 39°27' W 000°20'0 0.0
2014-Sep-18 12:33N 39°27' W 000°20'0 0.0
2014-Sep-18 11:33N 39°27' W 000°20'0 0.0
2014-Sep-18 10:33N 39°27' W 000°20'0 0.0
2014-Sep-18 09:33N 39°27' W 000°20'0 0.0
2014-Sep-18 08:33N 39°27' W 000°20'0 0.0
2014-Sep-18 07:33N 39°27' W 000°20'0 0.0
2014-Sep-18 06:33N 39°27' W 000°20'0 0.0
2014-Sep-18 05:33N 39°27' W 000°20'0 0.0
2014-Sep-18 04:33N 39°27' W 000°20'0 0.0
2014-Sep-18 03:33N 39°27' W 000°20'0 0.0
2014-Sep-18 02:33N 39°27' W 000°20'0 0.0
2014-Sep-18 01:33N 39°27' W 000°20'0 0.0
2014-Sep-18 00:33N 39°27' W 000°20'0 0.0
2014-Sep-17 23:33N 39°27' W 000°20'0 0.0
2014-Sep-17 22:33N 39°27' W 000°20'0 0.0
2014-Sep-17 21:33N 39°27' W 000°20'0 0.0
2014-Sep-17 20:33N 39°27' W 000°20'0 0.0
2014-Sep-17 19:33N 39°27' W 000°20'0 0.0
2014-Sep-17 18:33N 39°27' W 000°20'0 0.0
2014-Sep-17 17:33N 39°27' W 000°20'0 0.0
2014-Sep-17 16:33N 39°27' W 000°20'0 0.0
2014-Sep-17 15:33N 39°27' W 000°20'0 0.0
2014-Sep-17 14:33N 39°27' W 000°20'0 0.0
2014-Sep-17 13:33N 39°27' W 000°20'0 0.0
2014-Sep-17 12:33N 39°27' W 000°20'0 0.0
2014-Sep-17 11:33N 39°27' W 000°20'0 0.0
2014-Sep-17 10:33N 39°27' W 000°20'0 0.0
2014-Sep-17 09:33N 39°27' W 000°20'0 0.0
2014-Sep-17 08:33N 39°27' W 000°20'0 0.0
2014-Sep-17 07:33N 39°27' W 000°20'0 0.0
2014-Sep-17 06:33N 39°27' W 000°20'0 0.0
2014-Sep-17 05:33N 39°27' W 000°20'0 0.0
2014-Sep-17 04:33N 39°27' W 000°20'0 0.0
2014-Sep-17 03:33N 39°27' W 000°20'0 0.0
2014-Sep-17 02:33N 39°27' W 000°20'0 0.0
2014-Sep-17 01:33N 39°27' W 000°20'0 0.0
2014-Sep-17 00:33N 39°27' W 000°20'0 0.0
2014-Sep-16 23:33N 39°27' W 000°20'0 0.0
2014-Sep-16 22:33N 39°27' W 000°20'0 0.0
2014-Sep-16 21:33N 39°27' W 000°20'0 0.0
2014-Sep-16 20:33N 39°27' W 000°20'0 0.0
2014-Sep-16 19:33N 39°27' W 000°20'0 0.0
2014-Sep-16 18:33N 39°27' W 000°20'0 0.0
2014-Sep-16 17:33N 39°27' W 000°20'0 0.0
2014-Sep-16 16:33N 39°27' W 000°20'0 0.0
2014-Sep-16 15:33N 39°27' W 000°20'0 0.0
2014-Sep-16 14:33N 39°27' W 000°20'0 0.0
2014-Sep-16 13:33N 39°27' W 000°20'0 0.0
2014-Sep-16 12:33N 39°27' W 000°20'0 0.0
2014-Sep-16 11:33N 39°27' W 000°20'0 0.0
2014-Sep-16 10:33N 39°27' W 000°20'0 0.0
2014-Sep-16 09:33N 39°27' W 000°20'0 0.0
2014-Sep-16 08:33N 39°27' W 000°20'0 0.0
2014-Sep-16 07:33N 39°27' W 000°20'0 0.0
2014-Sep-16 06:33N 39°27' W 000°20'0 0.0
2014-Sep-16 05:33N 39°27' W 000°20'0 0.0
2014-Sep-16 04:33N 39°27' W 000°20'0 0.0
2014-Sep-16 03:33N 39°27' W 000°20'0 0.0
2014-Sep-16 02:33N 39°27' W 000°20'0 0.0
2014-Sep-16 01:33N 39°27' W 000°20'0 0.0
2014-Sep-16 00:33N 39°27' W 000°20'0 0.0
2014-Sep-15 23:33N 39°27' W 000°20'0 0.0
2014-Sep-15 22:33N 39°27' W 000°20'0 0.0
2014-Sep-15 21:33N 39°27' W 000°20'0 0.0
2014-Sep-15 20:33N 39°27' W 000°20'0 0.0
2014-Sep-15 19:33N 39°27' W 000°20'0 0.0
2014-Sep-15 18:33N 39°27' W 000°20'0 0.0
2014-Sep-15 17:33N 39°27' W 000°20'0 0.0
2014-Sep-15 16:33N 39°27' W 000°20'0 0.0
2014-Sep-15 15:33N 39°27' W 000°20'0 0.0
2014-Sep-15 14:33N 39°27' W 000°20'0 0.0
2014-Sep-15 13:33N 39°27' W 000°20'0 0.0
2014-Sep-15 12:33N 39°27' W 000°20'0 0.0
2014-Sep-15 11:33N 39°27' W 000°20'0 0.0
2014-Sep-15 10:33N 39°27' W 000°20'0 0.0
2014-Sep-15 09:33N 39°27' W 000°20'0 0.0
2014-Sep-15 08:33N 39°27' W 000°20'0 0.0
2014-Sep-15 07:33N 39°27' W 000°20'0 0.0
2014-Sep-15 06:33N 39°27' W 000°20'0 0.0
2014-Sep-15 05:33N 39°27' W 000°20'0 0.0
2014-Sep-15 04:33N 39°27' W 000°20'0 0.0
2014-Sep-15 03:33N 39°27' W 000°20'0 0.0
2014-Sep-15 02:33N 39°27' W 000°20'0 0.0
2014-Sep-15 01:33N 39°27' W 000°20'0 0.0
2014-Sep-15 00:33N 39°27' W 000°20'0 0.0
2014-Sep-14 23:33N 39°27' W 000°20'0 0.0
2014-Sep-14 22:33N 39°27' W 000°20'0 0.0
2014-Sep-14 21:33N 39°27' W 000°20'0 0.0
2014-Sep-14 20:33N 39°27' W 000°20'0 0.0
2014-Sep-14 19:34N 39°27' W 000°20'0 0.0
2014-Sep-14 18:33N 39°27' W 000°20'0 0.0
2014-Sep-14 17:33N 39°27' W 000°20'0 0.0
2014-Sep-14 16:34N 39°27' W 000°20'0 0.0
2014-Sep-14 15:34N 39°27' W 000°20'0 0.0
2014-Sep-14 14:33N 39°27' W 000°20'0 0.0
2014-Sep-14 13:33N 39°27' W 000°20'0 0.0
2014-Sep-14 12:33N 39°27' W 000°20'0 0.0
2014-Sep-14 11:33N 39°27' W 000°20'0 0.0
2014-Sep-14 10:33N 39°27' W 000°20'0 0.0
2014-Sep-14 09:33N 39°27' W 000°20'0 0.0
2014-Sep-14 08:33N 39°27' W 000°20'0 0.0
2014-Sep-14 07:33N 39°27' W 000°20'0 0.0
2014-Sep-14 06:33N 39°27' W 000°20'0 0.0
2014-Sep-14 05:33N 39°27' W 000°20'0 0.0
2014-Sep-14 04:33N 39°27' W 000°20'0 0.0
2014-Sep-14 03:33N 39°27' W 000°20'0 0.0
2014-Sep-14 02:33N 39°27' W 000°20'0 0.0
2014-Sep-14 01:33N 39°27' W 000°20'0 0.0
2014-Sep-13 21:33N 39°27' W 000°20'0 0.0
2014-Sep-13 20:34N 39°27' W 000°20'0 0.0
2014-Sep-13 19:33N 39°27' W 000°20'0 0.0
2014-Sep-13 18:34N 39°27' W 000°20'0 0.0
2014-Sep-13 17:33N 39°27' W 000°20'0 0.0
2014-Sep-13 16:34N 39°27' W 000°20'0 0.0
2014-Sep-13 15:34N 39°27' W 000°20'0 0.0
2014-Sep-13 14:33N 39°27' W 000°20'0 0.0
2014-Sep-13 13:33N 39°27' W 000°20'0 0.0
2014-Sep-13 12:33N 39°27' W 000°20'0 0.0
2014-Sep-13 11:33N 39°27' W 000°20'0 0.0
2014-Sep-13 10:34N 39°27' W 000°20'0 0.3
2014-Sep-13 09:33N 39°27' W 000°20'0 0.3
2014-Sep-13 08:33N 39°27' W 000°20'0 0.0
2014-Sep-13 07:33N 39°27' W 000°20'0 0.0
2014-Sep-13 06:33N 39°27' W 000°20'0 0.0
2014-Sep-13 05:33N 39°27' W 000°20'0 0.0
2014-Sep-13 04:33N 39°27' W 000°20'0 0.0
2014-Sep-13 03:34N 39°27' W 000°20'0 0.0
2014-Sep-13 02:33N 39°27' W 000°20'0 0.0
2014-Sep-13 01:34N 39°27' W 000°20'0 0.0
2014-Sep-13 00:33N 39°27' W 000°20'0 0.0
2014-Sep-12 23:33N 39°27' W 000°20'0 0.0
2014-Sep-12 22:33N 39°27' W 000°20'0 0.1
2014-Sep-12 21:33N 39°27' W 000°20'0 0.1
2014-Sep-12 20:34N 39°27' W 000°20'0 0.0
2014-Sep-12 19:33N 39°27' W 000°20'0 0.0
2014-Sep-12 18:34N 39°27' W 000°20'0 0.0
2014-Sep-12 17:33N 39°27' W 000°20'0 0.0
2014-Sep-12 16:33N 39°27' W 000°20'0 0.0
2014-Sep-12 15:33N 39°27' W 000°20'0 0.0
2014-Sep-12 14:33N 39°27' W 000°20'0 0.0
2014-Sep-12 13:33N 39°27' W 000°20'0 0.0
2014-Sep-12 12:33N 39°27' W 000°20'0 0.0
2014-Sep-12 11:33N 39°27' W 000°20'0 0.0
2014-Sep-12 10:33N 39°27' W 000°20'0 0.3
2014-Sep-12 09:33N 39°27' W 000°20'0 0.2
2014-Sep-12 08:33N 39°27' W 000°20'0 0.0
2014-Sep-12 07:33N 39°27' W 000°20'0 0.0
2014-Sep-12 06:34N 39°27' W 000°20'0 0.0
2014-Sep-12 05:33N 39°27' W 000°20'0 0.0
2014-Sep-12 04:33N 39°27' W 000°20'0 0.0
2014-Sep-12 03:33N 39°27' W 000°20'0 0.0
2014-Sep-12 02:33N 39°27' W 000°20'0 0.0
2014-Sep-12 01:33N 39°27' W 000°20'0 0.0
2014-Sep-12 00:33N 39°27' W 000°20'0 0.0
2014-Sep-11 23:33N 39°27' W 000°20'0 0.0
2014-Sep-11 22:33N 39°27' W 000°20'1 0.9
2014-Sep-11 21:33N 39°26' W 000°19'0 0.2
2014-Sep-11 20:34N 39°26' W 000°20'0 0.0
2014-Sep-11 19:34N 39°26' W 000°20'0 0.0
2014-Sep-11 18:33N 39°26' W 000°20'1 0.5
2014-Sep-11 16:11N 39°27' W 000°19'0 0.0
2014-Sep-11 15:33N 39°27' W 000°19'1 1.2
2014-Sep-11 14:33N 39°26' W 000°20'0 0.0
2014-Sep-11 13:33N 39°26' W 000°20'0 0.0
2014-Sep-11 12:33N 39°26' W 000°20'0 0.0
2014-Sep-11 11:32N 39°26' W 000°20'0 0.0
2014-Sep-11 10:34N 39°26' W 000°20'0 0.1
2014-Sep-11 09:33N 39°26' W 000°20'0 0.1
2014-Sep-11 08:14N 39°26' W 000°20'0 0.0
2014-Sep-11 07:33N 39°26' W 000°20'0 0.0
2014-Sep-11 06:34N 39°26' W 000°20'0 0.0
2014-Sep-11 05:33N 39°26' W 000°20'0 0.0
2014-Sep-11 04:33N 39°26' W 000°20'0 0.0
2014-Sep-11 03:33N 39°26' W 000°20'0 0.5
2014-Sep-11 02:33N 39°26' W 000°19'1 0.8
2014-Sep-11 01:33N 39°27' W 000°20'0 0.0
2014-Sep-11 00:33N 39°27' W 000°20'0 0.0
2014-Sep-10 23:33N 39°27' W 000°20'0 0.0
2014-Sep-10 22:34N 39°27' W 000°20'0 0.0
2014-Sep-10 21:33N 39°27' W 000°20'0 0.0
2014-Sep-10 20:33N 39°27' W 000°20'0 0.0
2014-Sep-10 19:33N 39°27' W 000°20'0 0.0
2014-Sep-10 18:33N 39°27' W 000°20'0 0.4
2014-Sep-10 17:33N 39°27' W 000°19'0 0.5
2014-Sep-10 16:34N 39°27' W 000°19'0 0.1
2014-Sep-10 14:33N 39°27' W 000°19'  

Dump ship's entire track history